createdAt,value
2023-05-17T00:00:54.788Z,100685.78
2023-05-17T00:01:57.182Z,100680.53
2023-05-17T00:02:59.626Z,100671.41
2023-05-17T00:04:01.999Z,100675.47
2023-05-17T00:05:04.981Z,100674.88
2023-05-17T00:06:07.506Z,100679.50
2023-05-17T00:07:09.925Z,100671.50
2023-05-17T00:08:12.341Z,100683.56
2023-05-17T00:09:14.665Z,100675.75
2023-05-17T00:10:17.325Z,100672.16
2023-05-17T00:11:19.594Z,100685.28
2023-05-17T00:12:21.954Z,100680.88
2023-05-17T00:13:24.295Z,100680.03
2023-05-17T00:14:26.690Z,100683.03
2023-05-17T00:15:29.179Z,100682.16
2023-05-17T00:16:31.661Z,100682.63
2023-05-17T00:17:34.055Z,100683.47
2023-05-17T00:18:36.674Z,100680.94
2023-05-17T00:19:39.106Z,100680.31
2023-05-17T00:20:41.727Z,100688.78
2023-05-17T00:21:44.569Z,100680.78
2023-05-17T00:22:47.549Z,100682.91
2023-05-17T00:23:49.929Z,100688.41
2023-05-17T00:24:52.237Z,100692.44
2023-05-17T00:25:54.486Z,100681.69
2023-05-17T00:26:56.792Z,100681.09
2023-05-17T00:27:59.151Z,100684.91
2023-05-17T00:29:03.977Z,100681.34
2023-05-17T00:30:08.809Z,100683.47
2023-05-17T00:31:12.485Z,100680.94
2023-05-17T00:32:14.955Z,100684.75
2023-05-17T00:33:17.265Z,100680.56
2023-05-17T00:34:19.830Z,100685.22
2023-05-17T00:35:22.453Z,100689.03
2023-05-17T00:36:25.150Z,100684.84
2023-05-17T00:37:27.406Z,100692.44
2023-05-17T00:38:29.972Z,100691.84
2023-05-17T00:39:32.274Z,100689.09
2023-05-17T00:40:34.612Z,100699.22
2023-05-17T00:41:36.925Z,100697.78
2023-05-17T00:42:39.330Z,100689.78
2023-05-17T00:43:41.807Z,100702.91
2023-05-17T00:44:45.374Z,100695.72
2023-05-17T00:45:49.570Z,100693.66
2023-05-17T00:46:51.940Z,100692.81
2023-05-17T00:47:54.381Z,100690.31
2023-05-17T00:48:56.930Z,100691.34
2023-05-17T00:49:59.442Z,100690.72
2023-05-17T00:51:02.002Z,100696.44
2023-05-17T00:52:04.638Z,100697.50
2023-05-17T00:53:07.383Z,100697.75
2023-05-17T00:54:09.668Z,100698.81
2023-05-17T00:55:12.208Z,100701.78
2023-05-17T00:56:14.798Z,100694.59
2023-05-17T00:57:17.312Z,100699.25
2023-05-17T00:58:19.658Z,100702.25
2023-05-17T00:59:23.462Z,100690.41
2023-05-17T01:00:26.058Z,100691.69
2023-05-17T01:01:28.449Z,100691.09
2023-05-17T01:02:31.000Z,100694.66
2023-05-17T01:03:33.489Z,100700.38
2023-05-17T01:04:36.723Z,100695.13
2023-05-17T01:05:39.268Z,100696.19
2023-05-17T01:06:42.004Z,100697.25
2023-05-17T01:07:44.360Z,100693.66
2023-05-17T01:08:46.732Z,100702.13
2023-05-17T01:09:49.370Z,100694.97
2023-05-17T01:11:39.343Z,100697.94
2023-05-17T01:12:55.885Z,100695.38
2023-05-17T01:14:09.843Z,100697.31
2023-05-17T01:15:18.399Z,100698.34
2023-05-17T01:17:05.418Z,100704.91
2023-05-17T01:18:23.931Z,100699.66
2023-05-17T01:19:28.925Z,100699.88
2023-05-17T01:20:38.355Z,100704.53
2023-05-17T01:21:49.394Z,100702.84
2023-05-17T01:23:07.611Z,100704.72
2023-05-17T01:24:30.515Z,100709.00
2023-05-17T01:25:50.152Z,100702.69
2023-05-17T01:26:55.163Z,100703.72
2023-05-17T01:28:02.420Z,100704.78
2023-05-17T01:29:06.315Z,100703.97
2023-05-17T01:30:12.189Z,100706.06
2023-05-17T01:31:15.011Z,100714.31
2023-05-17T01:32:18.278Z,100703.56
2023-05-17T01:33:21.395Z,100704.41
2023-05-17T01:34:30.446Z,100710.97
2023-05-17T01:35:32.734Z,100713.69
2023-05-17T01:36:35.636Z,100719.41
2023-05-17T01:37:42.543Z,100709.50
2023-05-17T01:38:44.843Z,100714.13
2023-05-17T01:39:47.469Z,100718.56
2023-05-17T01:41:21.079Z,100721.53
2023-05-17T01:42:31.314Z,100726.19
2023-05-17T01:43:50.741Z,100723.63
2023-05-17T01:45:07.846Z,100722.59
2023-05-17T01:46:26.839Z,100729.34
2023-05-17T01:47:45.901Z,100721.34
2023-05-17T01:48:57.190Z,100728.75
2023-05-17T01:50:01.084Z,100725.78
2023-05-17T01:51:04.716Z,100723.25
2023-05-17T01:52:17.439Z,100723.47
2023-05-17T01:53:51.351Z,100724.53
2023-05-17T01:55:11.154Z,100721.16
2023-05-17T01:56:27.370Z,100729.41
2023-05-17T01:57:33.860Z,100735.13
2023-05-17T01:58:48.827Z,100734.28
2023-05-17T01:59:52.553Z,100727.13
2023-05-17T02:00:57.136Z,100731.72
2023-05-17T02:02:06.452Z,100734.72
2023-05-17T02:03:13.023Z,100744.84
2023-05-17T02:04:15.507Z,100737.69
2023-05-17T02:08:14.518Z,100734.31
2023-05-17T02:09:17.245Z,100741.91
2023-05-17T02:10:19.706Z,100742.97
2023-05-17T02:11:22.074Z,100742.16
2023-05-17T02:12:25.582Z,100743.19
2023-05-17T02:13:28.186Z,100742.34
2023-05-17T02:14:30.635Z,100747.81
2023-05-17T02:15:33.071Z,100741.75
2023-05-17T02:16:35.757Z,100746.38
2023-05-17T02:17:39.869Z,100748.28
2023-05-17T02:18:42.360Z,100742.78
2023-05-17T02:19:44.970Z,100748.28
2023-05-17T02:20:47.578Z,100741.75
2023-05-17T02:21:49.919Z,100734.56
2023-05-17T02:22:52.297Z,100732.88
2023-05-17T02:23:54.619Z,100734.56
2023-05-17T02:24:56.995Z,100734.78
2023-05-17T02:25:59.345Z,100732.88
2023-05-17T02:27:03.928Z,100732.06
2023-05-17T02:28:07.352Z,100725.72
2023-05-17T02:29:11.430Z,100733.09
2023-05-17T02:30:17.146Z,100726.78
2023-05-17T02:31:20.328Z,100738.38
2023-05-17T02:32:25.041Z,100734.78
2023-05-17T02:33:27.930Z,100733.09
2023-05-17T02:34:33.370Z,100733.09
2023-05-17T02:35:35.764Z,100733.09
2023-05-17T02:36:38.176Z,100738.59
2023-05-17T02:37:40.645Z,100740.50
2023-05-17T02:38:42.992Z,100743.25
2023-05-17T02:39:45.339Z,100745.13
2023-05-17T02:40:47.750Z,100740.69
2023-05-17T02:41:50.045Z,100746.19
2023-05-17T02:42:52.452Z,100746.19
2023-05-17T02:43:54.819Z,100747.25
2023-05-17T02:44:58.163Z,100746.41
2023-05-17T02:46:00.614Z,100751.88
2023-05-17T02:47:02.962Z,100751.88
2023-05-17T02:48:06.256Z,100757.38
2023-05-17T02:49:08.624Z,100751.28
2023-05-17T02:50:11.142Z,100756.75
2023-05-17T02:51:13.537Z,100761.38
2023-05-17T02:52:16.594Z,100761.38
2023-05-17T02:53:19.523Z,100765.00
2023-05-17T02:54:22.243Z,100769.59
2023-05-17T02:55:24.723Z,100763.53
2023-05-17T02:56:27.061Z,100767.09
2023-05-17T02:57:29.529Z,100762.66
2023-05-17T02:58:31.920Z,100766.25
2023-05-17T02:59:34.247Z,100771.75
2023-05-17T03:00:36.589Z,100771.97
2023-05-17T03:01:39.061Z,100773.84
2023-05-17T03:02:41.508Z,100763.13
2023-05-17T03:03:44.101Z,100768.59
2023-05-17T03:04:46.930Z,100762.88
2023-05-17T03:05:49.302Z,100767.53
2023-05-17T03:06:51.633Z,100769.41
2023-05-17T03:07:54.188Z,100774.06
2023-05-17T03:08:57.043Z,100776.00
2023-05-17T03:09:59.389Z,100778.72
2023-05-17T03:11:05.300Z,100777.88
2023-05-17T03:12:08.424Z,100782.75
2023-05-17T03:13:10.735Z,100791.81
2023-05-17T03:14:15.080Z,100784.63
2023-05-17T03:15:17.563Z,100789.28
2023-05-17T03:16:20.951Z,100782.94
2023-05-17T03:17:24.692Z,100790.09
2023-05-17T03:18:28.941Z,100795.81
2023-05-17T03:19:31.417Z,100785.91
2023-05-17T03:20:33.943Z,100787.81
2023-05-17T03:21:36.352Z,100796.03
2023-05-17T03:22:39.390Z,100790.56
2023-05-17T03:23:41.763Z,100796.25
2023-05-17T03:24:44.125Z,100791.81
2023-05-17T03:25:46.522Z,100792.66
2023-05-17T03:26:49.084Z,100793.72
2023-05-17T03:27:51.565Z,100791.19
2023-05-17T03:28:53.946Z,100798.38
2023-05-17T03:29:56.389Z,100792.88
2023-05-17T03:31:00.810Z,100802.16
2023-05-17T03:32:06.956Z,100805.13
2023-05-17T03:33:09.435Z,100809.53
2023-05-17T03:34:11.875Z,100801.53
2023-05-17T03:35:15.147Z,100802.59
2023-05-17T03:36:20.575Z,100802.59
2023-05-17T03:37:23.046Z,100802.59
2023-05-17T03:38:25.696Z,100807.25
2023-05-17T03:39:28.056Z,100804.50
2023-05-17T03:40:30.399Z,100800.09
2023-05-17T03:41:34.095Z,100807.44
2023-05-17T03:42:37.333Z,100803.88
2023-05-17T03:43:40.418Z,100805.78
2023-05-17T03:44:44.669Z,100811.25
2023-05-17T03:45:47.829Z,100809.56
2023-05-17T03:46:53.090Z,100814.19
2023-05-17T03:47:56.527Z,100812.31
2023-05-17T03:48:59.546Z,100814.19
2023-05-17T03:50:02.127Z,100815.28
2023-05-17T03:51:06.266Z,100818.84
2023-05-17T03:52:09.299Z,100813.38
2023-05-17T03:53:11.776Z,100821.81
2023-05-17T03:54:14.448Z,100825.38
2023-05-17T03:55:16.836Z,100828.13
2023-05-17T03:56:21.413Z,100828.13
2023-05-17T03:57:23.873Z,100826.44
2023-05-17T03:58:26.401Z,100831.50
2023-05-17T03:59:28.727Z,100830.03
2023-05-17T04:00:31.103Z,100832.53
2023-05-17T04:01:37.746Z,100836.13
2023-05-17T04:02:40.344Z,100836.13
2023-05-17T04:03:43.228Z,100836.97
2023-05-17T04:04:50.678Z,100842.25
2023-05-17T04:05:53.899Z,100830.63
2023-05-17T04:06:56.289Z,100838.66
2023-05-17T04:08:00.208Z,100837.59
2023-05-17T04:09:02.604Z,100838.44
2023-05-17T04:10:06.025Z,100834.84
2023-05-17T04:11:14.107Z,100836.53
2023-05-17T04:12:16.831Z,100842.00
2023-05-17T04:13:19.726Z,100842.88
2023-05-17T04:14:22.684Z,100841.78
2023-05-17T04:15:25.380Z,100841.56
2023-05-17T04:16:28.124Z,100834.22
2023-05-17T04:17:31.379Z,100834.00
2023-05-17T04:18:37.617Z,100834.63
2023-05-17T04:19:40.099Z,100833.56
2023-05-17T04:20:43.099Z,100840.72
2023-05-17T04:21:46.162Z,100832.09
2023-05-17T04:22:48.690Z,100837.34
2023-05-17T04:23:51.754Z,100837.13
2023-05-17T04:24:54.090Z,100845.13
2023-05-17T04:25:58.304Z,100844.91
2023-05-17T04:27:03.252Z,100830.16
2023-05-17T04:28:06.160Z,100840.69
2023-05-17T04:29:08.572Z,100839.63
2023-05-17T04:30:11.227Z,100841.31
2023-05-17T04:31:16.911Z,100840.84
2023-05-17T04:32:20.354Z,100836.84
2023-05-17T04:33:24.507Z,100836.66
2023-05-17T04:34:29.203Z,100840.84
2023-05-17T04:35:32.230Z,100839.59
2023-05-17T04:36:35.377Z,100834.69
2023-05-17T04:37:40.659Z,100842.50
2023-05-17T04:38:53.231Z,100840.38
2023-05-17T04:39:59.550Z,100835.31
2023-05-17T04:41:04.910Z,100843.94
2023-05-17T04:42:12.187Z,100840.75
2023-05-17T04:43:19.089Z,100842.84
2023-05-17T04:44:22.313Z,100842.19
2023-05-17T04:45:25.306Z,100838.78
2023-05-17T04:46:28.056Z,100847.22
2023-05-17T04:47:30.561Z,100847.16
2023-05-17T04:48:33.399Z,100848.41
2023-05-17T04:49:36.367Z,100845.84
2023-05-17T04:50:38.753Z,100847.72
2023-05-17T04:51:41.171Z,100837.09
2023-05-17T04:52:46.003Z,100844.22
2023-05-17T04:53:48.423Z,100846.09
2023-05-17T04:54:53.318Z,100847.97
2023-05-17T04:55:59.994Z,100846.84
2023-05-17T04:57:03.880Z,100855.25
2023-05-17T04:58:32.094Z,100843.38
2023-05-17T04:59:35.670Z,100851.75
2023-05-17T05:00:38.269Z,100856.38
2023-05-17T05:01:41.809Z,100852.72
2023-05-17T05:02:44.436Z,100858.38
2023-05-17T05:03:48.405Z,100857.53
2023-05-17T05:04:50.780Z,100867.81
2023-05-17T05:05:55.975Z,100875.16
2023-05-17T05:06:58.914Z,100863.28
2023-05-17T05:08:01.474Z,100871.69
2023-05-17T05:09:04.560Z,100873.50
2023-05-17T05:10:08.829Z,100866.28
2023-05-17T05:11:12.002Z,100874.69
2023-05-17T05:12:15.691Z,100868.25
2023-05-17T05:13:18.742Z,100871.16
2023-05-17T05:14:21.064Z,100864.50
2023-05-17T05:15:24.426Z,100865.53
2023-05-17T05:16:31.391Z,100863.50
2023-05-17T05:17:34.241Z,100859.03
2023-05-17T05:18:36.997Z,100860.81
2023-05-17T05:19:39.767Z,100868.78
2023-05-17T05:20:43.695Z,100862.31
2023-05-17T05:21:48.089Z,100861.41
2023-05-17T05:22:50.573Z,100859.41
2023-05-17T05:23:54.372Z,100857.41
2023-05-17T05:24:57.286Z,100859.22
2023-05-17T05:25:59.642Z,100854.69
2023-05-17T05:27:04.430Z,100860.31
2023-05-17T05:28:08.695Z,100858.56
2023-05-17T05:29:13.825Z,100858.69
2023-05-17T05:30:22.676Z,100860.28
2023-05-17T05:31:28.495Z,100853.84
2023-05-17T05:32:33.615Z,100856.72
2023-05-17T05:33:36.905Z,100848.59
2023-05-17T05:34:40.247Z,100852.31
2023-05-17T05:35:42.634Z,100860.69
2023-05-17T05:36:45.361Z,100860.81
2023-05-17T05:37:47.997Z,100856.28
2023-05-17T05:38:52.913Z,100866.56
2023-05-17T05:39:55.312Z,100865.63
2023-05-17T05:40:57.713Z,100876.78
2023-05-17T05:42:00.203Z,100869.25
2023-05-17T05:43:02.624Z,100873.78
2023-05-17T05:44:06.375Z,100874.75
2023-05-17T05:45:10.262Z,100869.94
2023-05-17T05:46:12.603Z,100874.50
2023-05-17T05:47:16.037Z,100880.75
2023-05-17T05:48:18.530Z,100873.16
2023-05-17T05:49:21.164Z,100875.78
2023-05-17T05:50:24.135Z,100872.88
2023-05-17T05:51:29.672Z,100876.34
2023-05-17T05:52:32.357Z,100880.66
2023-05-17T05:53:34.759Z,100879.44
2023-05-17T05:54:37.236Z,100881.00
2023-05-17T05:55:43.117Z,100880.63
2023-05-17T05:56:45.999Z,100884.91
2023-05-17T05:57:50.160Z,100887.28
2023-05-17T05:58:52.655Z,100890.47
2023-05-17T05:59:55.078Z,100891.75
2023-05-17T06:00:57.675Z,100893.63
2023-05-17T06:02:00.219Z,100887.69
2023-05-17T06:03:02.584Z,100892.78
2023-05-17T06:04:05.292Z,100904.28
2023-05-17T06:05:08.468Z,100900.88
2023-05-17T06:06:11.449Z,100904.91
2023-05-17T06:07:15.215Z,100903.38
2023-05-17T06:08:17.681Z,100899.34
2023-05-17T06:09:20.025Z,100912.50
2023-05-17T06:10:22.505Z,100902.13
2023-05-17T06:11:26.636Z,100912.50
2023-05-17T06:12:28.947Z,100904.63
2023-05-17T06:13:31.309Z,100908.88
2023-05-17T06:14:33.690Z,100903.75
2023-05-17T06:15:36.211Z,100910.50
2023-05-17T06:16:38.694Z,100911.75
2023-05-17T06:17:42.198Z,100912.97
2023-05-17T06:18:44.603Z,100902.28
2023-05-17T06:19:49.658Z,100908.22
2023-05-17T06:20:52.109Z,100908.31
2023-05-17T06:21:54.515Z,100900.97
2023-05-17T06:22:56.900Z,100918.56
2023-05-17T06:23:59.234Z,100910.09
2023-05-17T06:25:01.879Z,100915.47
2023-05-17T06:26:04.229Z,100913.38
2023-05-17T06:27:07.591Z,100909.59
2023-05-17T06:28:09.966Z,100908.56
2023-05-17T06:29:12.412Z,100905.09
2023-05-17T06:30:14.966Z,100909.34
2023-05-17T06:31:19.085Z,100900.81
2023-05-17T06:32:22.766Z,100907.59
2023-05-17T06:33:25.340Z,100901.84
2023-05-17T06:34:28.110Z,100901.34
2023-05-17T06:35:37.510Z,100906.38
2023-05-17T06:36:43.074Z,100909.50
2023-05-17T06:37:45.768Z,100897.59
2023-05-17T06:38:48.119Z,100912.91
2023-05-17T06:40:00.209Z,100910.16
2023-05-17T06:41:11.802Z,100912.97
2023-05-17T06:42:14.359Z,100914.97
2023-05-17T06:43:16.782Z,100914.41
2023-05-17T06:44:19.115Z,100929.44
2023-05-17T06:45:22.020Z,100915.00
2023-05-17T06:46:24.381Z,100920.00
2023-05-17T06:47:26.795Z,100911.38
2023-05-17T06:48:29.443Z,100913.34
2023-05-17T06:49:31.803Z,100921.94
2023-05-17T06:50:34.134Z,100918.63
2023-05-17T06:51:36.462Z,100921.94
2023-05-17T06:52:38.853Z,100918.63
2023-05-17T06:53:41.237Z,100923.31
2023-05-17T06:54:43.622Z,100917.75
2023-05-17T06:55:46.010Z,100925.00
2023-05-17T06:56:48.308Z,100917.75
2023-05-17T06:57:50.888Z,100925.00
2023-05-17T06:58:53.208Z,100920.81
2023-05-17T06:59:55.629Z,100920.25
2023-05-17T07:00:57.928Z,100928.06
2023-05-17T07:02:03.369Z,100930.00
2023-05-17T07:03:06.081Z,100925.56
2023-05-17T07:04:08.562Z,100931.38
2023-05-17T07:05:10.983Z,100931.94
2023-05-17T07:06:13.421Z,100938.03
2023-05-17T07:07:15.811Z,100932.78
2023-05-17T07:08:18.364Z,100941.72
2023-05-17T07:09:21.862Z,100942.25
2023-05-17T07:10:24.226Z,100936.94
2023-05-17T07:11:26.598Z,100938.63
2023-05-17T07:12:28.949Z,100929.44
2023-05-17T07:13:31.504Z,100945.56
2023-05-17T07:14:33.874Z,100944.44
2023-05-17T07:15:36.144Z,100938.00
2023-05-17T07:16:38.488Z,100939.09
2023-05-17T07:17:40.959Z,100935.75
2023-05-17T07:18:43.554Z,100935.75
2023-05-17T07:19:46.491Z,100941.00
2023-05-17T07:20:49.195Z,100937.91
2023-05-17T07:21:51.555Z,100944.00
2023-05-17T07:22:53.931Z,100938.13
2023-05-17T07:23:56.388Z,100935.31
2023-05-17T07:24:58.728Z,100940.88
2023-05-17T07:26:01.003Z,100940.28
2023-05-17T07:27:03.466Z,100936.38
2023-05-17T07:28:05.978Z,100933.25
2023-05-17T07:29:08.548Z,100937.91
2023-05-17T07:30:11.932Z,100935.66
2023-05-17T07:31:14.602Z,100933.34
2023-05-17T07:32:20.475Z,100931.06
2023-05-17T07:33:22.810Z,100930.44
2023-05-17T07:34:25.482Z,100924.25
2023-05-17T07:35:28.060Z,100935.91
2023-05-17T07:36:31.560Z,100931.94
2023-05-17T07:37:34.023Z,100941.09
2023-05-17T07:38:36.801Z,100939.69
2023-05-17T07:39:39.251Z,100928.78
2023-05-17T07:40:41.790Z,100932.97
2023-05-17T07:41:44.089Z,100930.69
2023-05-17T07:42:46.456Z,100932.63
2023-05-17T07:43:49.018Z,100933.16
2023-05-17T07:44:51.378Z,100930.31
2023-05-17T07:45:53.991Z,100927.22
2023-05-17T07:46:56.377Z,100932.22
2023-05-17T07:47:58.880Z,100932.78
2023-05-17T07:49:01.885Z,100936.63
2023-05-17T07:50:04.891Z,100934.91
2023-05-17T07:51:07.711Z,100934.31
2023-05-17T07:52:10.159Z,100933.44
2023-05-17T07:53:12.933Z,100925.00
2023-05-17T07:54:27.209Z,100934.69
2023-05-17T07:55:29.847Z,100932.34
2023-05-17T07:56:33.927Z,100928.38
2023-05-17T07:57:38.866Z,100938.88
2023-05-17T07:58:41.539Z,100944.97
2023-05-17T07:59:43.871Z,100936.81
2023-05-17T08:00:46.222Z,100942.69
2023-05-17T08:01:48.740Z,100945.69
2023-05-17T08:02:51.246Z,100934.44
2023-05-17T08:03:54.243Z,100944.44
2023-05-17T08:04:56.695Z,100947.97
2023-05-17T08:05:59.437Z,100942.31
2023-05-17T08:07:02.646Z,100949.81
2023-05-17T08:08:05.288Z,100949.28
2023-05-17T08:09:11.987Z,100947.84
2023-05-17T08:10:14.354Z,100947.25
2023-05-17T08:11:17.050Z,100951.69
2023-05-17T08:12:19.349Z,100949.75
2023-05-17T08:13:21.755Z,100953.06
2023-05-17T08:14:24.956Z,100952.78
2023-05-17T08:15:27.569Z,100957.75
2023-05-17T08:16:30.043Z,100954.66
2023-05-17T08:17:32.488Z,100948.75
2023-05-17T08:18:35.116Z,100958.50
2023-05-17T08:19:40.880Z,100952.31
2023-05-17T08:20:43.507Z,100949.44
2023-05-17T08:21:46.584Z,100952.19
2023-05-17T08:22:49.059Z,100948.44
2023-05-17T08:23:51.587Z,100954.91
2023-05-17T08:24:53.871Z,100955.72
2023-05-17T08:25:56.466Z,100954.03
2023-05-17T08:26:58.802Z,100964.13
2023-05-17T08:28:01.141Z,100957.97
2023-05-17T08:29:04.988Z,100957.78
2023-05-17T08:30:11.805Z,100961.16
2023-05-17T08:31:17.148Z,100961.78
2023-05-17T08:32:19.447Z,100955.13
2023-05-17T08:33:22.830Z,100952.91
2023-05-17T08:34:26.370Z,100955.19
2023-05-17T08:35:29.719Z,100944.06
2023-05-17T08:36:32.176Z,100948.69
2023-05-17T08:37:34.502Z,100953.00
2023-05-17T08:38:37.561Z,100945.56
2023-05-17T08:39:40.122Z,100950.16
2023-05-17T08:40:42.587Z,100948.81
2023-05-17T08:41:49.673Z,100945.03
2023-05-17T08:42:52.948Z,100949.56
2023-05-17T08:43:57.086Z,100942.34
2023-05-17T08:45:00.010Z,100946.56
2023-05-17T08:46:04.331Z,100945.50
2023-05-17T08:47:09.579Z,100947.75
2023-05-17T08:48:12.405Z,100945.25
2023-05-17T08:49:16.064Z,100948.59
2023-05-17T08:50:18.506Z,100940.78
2023-05-17T08:51:21.291Z,100929.09
2023-05-17T08:52:23.672Z,100944.44
2023-05-17T08:53:27.381Z,100933.56
2023-05-17T08:54:29.750Z,100931.59
2023-05-17T08:55:34.225Z,100932.66
2023-05-17T08:56:39.793Z,100928.13
2023-05-17T08:57:43.025Z,100930.03
2023-05-17T08:59:55.504Z,100931.34
2023-05-17T09:01:00.292Z,100929.06
2023-05-17T09:02:03.170Z,100933.03
2023-05-17T09:03:06.537Z,100931.03
2023-05-17T09:04:10.895Z,100923.78
2023-05-17T09:05:14.433Z,100923.19
2023-05-17T09:06:25.868Z,100919.88
2023-05-17T09:07:28.197Z,100917.88
2023-05-17T09:08:33.096Z,100919.09
2023-05-17T09:09:35.525Z,100930.88
2023-05-17T09:10:37.875Z,100918.63
2023-05-17T09:11:40.934Z,100924.56
2023-05-17T09:12:44.605Z,100934.13
2023-05-17T09:13:46.941Z,100928.31
2023-05-17T09:14:49.593Z,100931.69
2023-05-17T09:15:51.930Z,100939.84
2023-05-17T09:17:00.601Z,100938.53
2023-05-17T09:18:03.054Z,100937.75
2023-05-17T09:19:07.776Z,100937.28
2023-05-17T09:20:11.749Z,100942.06
2023-05-17T09:21:14.203Z,100939.94
2023-05-17T09:22:19.799Z,100940.75
2023-05-17T09:23:22.605Z,100943.66
2023-05-17T09:24:32.994Z,100945.09
2023-05-17T09:25:35.650Z,100936.28
2023-05-17T09:26:40.862Z,100956.47
2023-05-17T09:27:43.236Z,100949.53
2023-05-17T09:28:45.793Z,100948.47
2023-05-17T09:29:48.743Z,100939.88
2023-05-17T09:30:51.121Z,100961.38
2023-05-17T09:31:55.504Z,100949.47
2023-05-17T09:32:58.457Z,100959.53
2023-05-17T09:34:02.639Z,100961.81
2023-05-17T09:35:05.325Z,100958.75
2023-05-17T09:36:22.856Z,100961.00
2023-05-17T09:37:26.515Z,100964.41
2023-05-17T09:38:29.593Z,100964.72
2023-05-17T09:39:33.047Z,100959.44
2023-05-17T09:40:43.817Z,100971.72
2023-05-17T09:41:48.424Z,100965.31
2023-05-17T09:42:50.972Z,100960.59
2023-05-17T09:43:53.283Z,100970.94
2023-05-17T09:45:00.315Z,100968.97
2023-05-17T09:46:03.000Z,100977.34
2023-05-17T09:47:05.801Z,100975.13
2023-05-17T09:48:14.023Z,100976.25
2023-05-17T09:49:17.972Z,100973.13
2023-05-17T09:50:23.187Z,100972.31
2023-05-17T09:51:34.206Z,100980.09
2023-05-17T09:52:37.324Z,100975.41
2023-05-17T09:53:41.893Z,100983.75
2023-05-17T09:54:44.174Z,100984.56
2023-05-17T09:55:48.755Z,100987.63
2023-05-17T09:56:55.747Z,100987.91
2023-05-17T09:58:04.063Z,100975.09
2023-05-17T09:59:14.442Z,100972.59
2023-05-17T10:00:19.902Z,100980.38
2023-05-17T10:01:25.705Z,100977.06
2023-05-17T10:02:31.390Z,100973.41
2023-05-17T10:03:36.485Z,100976.78
2023-05-17T10:04:40.501Z,100983.16
2023-05-17T10:05:44.348Z,100974.00
2023-05-17T10:06:51.416Z,100975.94
2023-05-17T10:07:56.830Z,100976.78
2023-05-17T10:09:00.948Z,100982.63
2023-05-17T10:10:04.340Z,100975.38
2023-05-17T10:11:09.855Z,100979.00
2023-05-17T10:12:16.875Z,100980.41
2023-05-17T10:13:25.027Z,100977.88
2023-05-17T10:14:34.137Z,100974.53
2023-05-17T10:15:37.197Z,100977.31
2023-05-17T10:16:39.852Z,100979.00
2023-05-17T10:17:45.443Z,100980.09
2023-05-17T10:18:49.596Z,100972.28
2023-05-17T10:19:53.085Z,100977.31
2023-05-17T10:20:56.520Z,100972.03
2023-05-17T10:22:10.956Z,100974.81
2023-05-17T10:23:22.662Z,100970.06
2023-05-17T10:24:27.211Z,100970.63
2023-05-17T10:25:30.351Z,100962.56
2023-05-17T10:26:33.596Z,100971.19
2023-05-17T10:27:36.501Z,100967.88
2023-05-17T10:28:39.799Z,100961.47
2023-05-17T10:29:43.672Z,100962.03
2023-05-17T10:30:47.690Z,100965.94
2023-05-17T10:31:53.645Z,100967.59
2023-05-17T10:32:56.983Z,100959.25
2023-05-17T10:34:01.988Z,100973.44
2023-05-17T10:35:12.005Z,100973.19
2023-05-17T10:36:17.839Z,100963.69
2023-05-17T10:37:23.093Z,100974.00
2023-05-17T10:38:38.780Z,100978.47
2023-05-17T10:39:47.080Z,100983.47
2023-05-17T10:40:52.116Z,100976.78
2023-05-17T10:42:12.979Z,100980.09
2023-05-17T10:43:19.085Z,100978.47
2023-05-17T10:44:22.437Z,100980.97
2023-05-17T10:45:27.592Z,100981.78
2023-05-17T10:46:31.177Z,100978.19
2023-05-17T10:47:34.639Z,100977.06
2023-05-17T10:48:37.589Z,100976.22
2023-05-17T10:49:41.789Z,100987.06
2023-05-17T10:50:54.508Z,100984.28
2023-05-17T10:52:22.065Z,100973.72
2023-05-17T10:53:24.344Z,100976.22
2023-05-17T10:54:39.500Z,100972.03
2023-05-17T10:55:44.059Z,100972.63
2023-05-17T10:56:53.334Z,100966.47
2023-05-17T10:58:11.342Z,100965.34
2023-05-17T10:59:24.467Z,100967.28
2023-05-17T11:00:30.823Z,100962.28
2023-05-17T11:02:10.074Z,100970.97
2023-05-17T11:03:14.728Z,100962.31
2023-05-17T11:04:24.825Z,100971.50
2023-05-17T11:05:27.987Z,100967.31
2023-05-17T11:06:38.545Z,100972.06
2023-05-17T11:07:41.604Z,100968.97
2023-05-17T11:08:48.371Z,100967.56
2023-05-17T11:10:08.156Z,100966.19
2023-05-17T11:11:12.579Z,100963.16
2023-05-17T11:12:16.060Z,100966.19
2023-05-17T11:13:27.750Z,100968.44
2023-05-17T11:14:45.496Z,100969.81
2023-05-17T11:16:03.788Z,100979.00
2023-05-17T11:17:20.755Z,100975.13
2023-05-17T11:18:30.768Z,100967.88
2023-05-17T11:19:34.584Z,100973.72
2023-05-17T11:20:37.945Z,100972.03
2023-05-17T11:21:47.880Z,100974.00
2023-05-17T11:22:56.713Z,100973.16
2023-05-17T11:24:02.371Z,100967.31
2023-05-17T11:25:10.216Z,100967.31
2023-05-17T11:26:41.810Z,100960.63
2023-05-17T11:27:49.078Z,100963.97
2023-05-17T11:29:07.813Z,100970.06
2023-05-17T11:30:32.045Z,100972.59
2023-05-17T11:31:36.160Z,100966.19
2023-05-17T11:32:38.869Z,100961.72
2023-05-17T11:33:46.058Z,100963.13
2023-05-17T11:34:52.987Z,100957.53
2023-05-17T11:35:56.655Z,100964.78
2023-05-17T11:36:58.982Z,100965.66
2023-05-17T11:38:22.407Z,100963.97
2023-05-17T11:39:25.595Z,100961.19
2023-05-17T11:40:28.770Z,100957.00
2023-05-17T11:41:32.767Z,100952.81
2023-05-17T11:42:36.602Z,100955.31
2023-05-17T11:43:45.368Z,100949.75
2023-05-17T11:44:48.530Z,100957.28
2023-05-17T11:45:57.752Z,100948.66
2023-05-17T11:47:09.538Z,100951.44
2023-05-17T11:48:15.636Z,100957.03
2023-05-17T11:49:34.134Z,100954.25
2023-05-17T11:50:40.190Z,100956.75
2023-05-17T11:51:43.275Z,100960.63
2023-05-17T11:52:45.583Z,100955.91
2023-05-17T11:53:49.366Z,100948.38
2023-05-17T11:54:52.477Z,100953.38
2023-05-17T11:55:56.254Z,100953.13
2023-05-17T11:57:00.231Z,100948.09
2023-05-17T11:58:04.186Z,100941.41
2023-05-17T11:59:06.546Z,100947.25
2023-05-17T12:00:09.594Z,100945.59
2023-05-17T12:01:18.044Z,100951.97
2023-05-17T12:02:31.160Z,100946.97
2023-05-17T12:03:33.663Z,100944.19
2023-05-17T12:04:38.183Z,100952.53
2023-05-17T12:05:40.856Z,100943.38
2023-05-17T12:06:45.186Z,100942.78
2023-05-17T12:07:50.367Z,100950.03
2023-05-17T12:08:52.716Z,100942.78
2023-05-17T12:09:56.180Z,100947.25
2023-05-17T12:10:58.862Z,100939.72
2023-05-17T12:12:04.855Z,100929.16
2023-05-17T12:13:07.239Z,100936.94
2023-05-17T12:14:10.214Z,100935.53
2023-05-17T12:15:20.657Z,100923.56
2023-05-17T12:16:24.742Z,100947.22
2023-05-17T12:17:35.796Z,100947.22
2023-05-17T12:18:43.097Z,100932.13
2023-05-17T12:19:45.938Z,100939.09
2023-05-17T12:20:58.355Z,100931.31
2023-05-17T12:22:14.375Z,100933.50
2023-05-17T12:23:16.716Z,100943.25